createdAt,value
2022-10-05T00:00:22.708Z,101979.47
2022-10-05T00:02:52.443Z,101986.59
2022-10-05T00:05:22.809Z,101988.63
2022-10-05T00:07:52.122Z,101995.34
2022-10-05T00:10:20.775Z,101992.56
2022-10-05T00:12:48.882Z,101991.72
2022-10-05T00:15:19.984Z,101994.44
2022-10-05T00:17:48.311Z,102001.47
2022-10-05T00:20:26.786Z,102008.38
2022-10-05T00:23:01.013Z,102006.91
2022-10-05T00:25:29.336Z,102015.09
2022-10-05T00:28:00.165Z,102001.94
2022-10-05T00:30:34.060Z,101999.47
2022-10-05T00:33:02.134Z,102003.22
2022-10-05T00:35:30.982Z,102004.06
2022-10-05T00:37:58.997Z,101994.34
2022-10-05T00:40:35.727Z,101998.59
2022-10-05T00:43:16.745Z,101999.88
2022-10-05T00:45:51.907Z,101991.47
2022-10-05T00:48:48.592Z,101997.97
2022-10-05T00:51:19.006Z,102002.34
2022-10-05T00:54:09.355Z,101998.47
2022-10-05T00:56:43.319Z,101993.47
2022-10-05T00:59:48.562Z,102001.50
2022-10-05T01:02:38.150Z,101994.44
2022-10-05T01:05:26.202Z,101996.47
2022-10-05T01:08:08.847Z,101990.97
2022-10-05T01:10:51.741Z,101996.19
2022-10-05T01:13:19.873Z,101996.06
2022-10-05T01:16:08.567Z,101990.13
2022-10-05T01:19:08.727Z,101995.50
2022-10-05T01:21:49.778Z,101991.28
2022-10-05T01:24:23.061Z,101994.75
2022-10-05T01:27:15.536Z,101999.91
2022-10-05T01:29:55.508Z,101988.81
2022-10-05T01:32:43.865Z,101988.59
2022-10-05T01:35:17.669Z,101996.81
2022-10-05T01:38:06.775Z,101994.28
2022-10-05T01:40:50.538Z,101991.53
2022-10-05T01:43:17.976Z,102003.16
2022-10-05T01:46:02.040Z,101996.28
2022-10-05T01:48:39.094Z,101997.56
2022-10-05T01:51:59.175Z,101997.44
2022-10-05T01:54:54.486Z,101988.59
2022-10-05T01:57:34.179Z,101992.44
2022-10-05T02:00:01.785Z,101994.00
2022-10-05T02:02:35.457Z,101994.84
2022-10-05T02:05:07.063Z,101994.25
2022-10-05T02:07:58.758Z,101993.41
2022-10-05T02:10:40.958Z,102001.81
2022-10-05T02:13:50.872Z,102003.03
2022-10-05T02:16:28.746Z,101998.16
2022-10-05T02:19:02.379Z,101999.63
2022-10-05T02:21:34.274Z,101993.56
2022-10-05T02:24:10.359Z,101987.03
2022-10-05T02:26:40.718Z,101993.16
2022-10-05T02:29:12.601Z,101986.19
2022-10-05T02:32:22.989Z,101979.78
2022-10-05T02:34:50.966Z,101970.84
2022-10-05T02:37:43.795Z,101972.41
2022-10-05T02:40:27.118Z,101973.75
2022-10-05T02:43:09.024Z,101977.38
2022-10-05T02:45:45.616Z,101972.81
2022-10-05T02:48:22.496Z,101979.09
2022-10-05T02:51:09.508Z,101975.97
2022-10-05T02:53:59.389Z,101967.00
2022-10-05T02:56:33.071Z,101974.56
2022-10-05T02:59:09.950Z,101968.88
2022-10-05T03:01:52.763Z,101974.25
2022-10-05T03:04:47.921Z,101965.16
2022-10-05T03:07:49.282Z,101971.88
2022-10-05T03:10:21.818Z,101973.19
2022-10-05T03:13:17.437Z,101974.16
2022-10-05T03:16:01.770Z,101971.03
2022-10-05T03:19:02.656Z,101976.22
2022-10-05T03:21:45.436Z,101976.56
2022-10-05T03:24:16.369Z,101976.81
2022-10-05T03:26:48.163Z,101977.41
2022-10-05T03:29:35.398Z,101974.47
2022-10-05T03:32:06.131Z,101974.03
2022-10-05T03:34:42.178Z,101981.97
2022-10-05T03:37:22.011Z,101979.84
2022-10-05T03:40:01.438Z,101981.31
2022-10-05T03:42:58.886Z,101988.19
2022-10-05T03:45:59.372Z,101989.00
2022-10-05T03:48:38.670Z,101994.34
2022-10-05T03:51:24.895Z,101991.66
2022-10-05T03:54:10.959Z,101992.78
2022-10-05T03:56:45.570Z,101989.56
2022-10-05T03:59:41.822Z,101992.19
2022-10-05T04:02:28.009Z,101995.44
2022-10-05T04:05:03.845Z,102000.22
2022-10-05T04:07:46.982Z,101996.38
2022-10-05T04:10:24.124Z,101993.09
2022-10-05T04:12:58.688Z,101991.84
2022-10-05T04:15:54.899Z,101991.59
2022-10-05T04:18:28.995Z,101994.59
2022-10-05T04:21:12.199Z,101987.00
2022-10-05T04:24:01.153Z,101991.94
2022-10-05T04:26:48.844Z,102000.56
2022-10-05T04:29:36.246Z,101997.44
2022-10-05T04:32:15.994Z,101999.38
2022-10-05T04:35:00.646Z,102011.13
2022-10-05T04:37:54.116Z,102006.28
2022-10-05T04:40:52.327Z,102009.66
2022-10-05T04:43:40.863Z,101991.91
2022-10-05T04:46:17.707Z,101995.75
2022-10-05T04:49:06.168Z,102008.22
2022-10-05T04:51:50.879Z,102007.97
2022-10-05T04:54:43.653Z,102004.97
2022-10-05T04:57:23.802Z,101995.69
2022-10-05T05:00:01.181Z,101995.44
2022-10-05T05:03:00.336Z,101996.00
2022-10-05T05:05:34.836Z,102006.31
2022-10-05T05:08:24.370Z,102001.72
2022-10-05T05:11:16.863Z,102007.25
2022-10-05T05:14:04.897Z,102004.38
2022-10-05T05:16:49.786Z,102005.94
2022-10-05T05:19:32.956Z,102011.59
2022-10-05T05:22:07.239Z,102020.53
2022-10-05T05:24:59.709Z,102022.00
2022-10-05T05:27:47.067Z,102020.44
2022-10-05T05:30:24.069Z,102025.72
2022-10-05T05:32:59.155Z,102025.50
2022-10-05T05:35:29.726Z,102029.00
2022-10-05T05:38:19.137Z,102030.41
2022-10-05T05:40:55.969Z,102034.38
2022-10-05T05:43:27.172Z,102043.47
2022-10-05T05:46:00.827Z,102043.56
2022-10-05T05:48:43.615Z,102034.97
2022-10-05T05:51:26.115Z,102034.97
2022-10-05T05:53:58.031Z,102039.44
2022-10-05T05:56:41.048Z,102047.03
2022-10-05T05:59:20.240Z,102048.94
2022-10-05T06:01:57.159Z,102047.53
2022-10-05T06:04:52.896Z,102040.16
2022-10-05T06:07:30.377Z,102044.72
2022-10-05T06:10:25.055Z,102041.91
2022-10-05T06:13:07.544Z,102044.56
2022-10-05T06:15:44.216Z,102053.19
2022-10-05T06:18:17.979Z,102056.78
2022-10-05T06:20:48.935Z,102061.75
2022-10-05T06:23:22.329Z,102069.00
2022-10-05T06:26:05.988Z,102072.16
2022-10-05T06:28:37.919Z,102073.59
2022-10-05T06:31:09.311Z,102081.59
2022-10-05T06:33:46.971Z,102079.00
2022-10-05T06:36:35.088Z,102078.47
2022-10-05T06:39:06.461Z,102085.25
2022-10-05T06:41:39.926Z,102086.19
2022-10-05T06:44:21.449Z,102083.25
2022-10-05T06:47:18.613Z,102081.81
2022-10-05T06:50:31.536Z,102078.34
2022-10-05T06:53:20.976Z,102077.25
2022-10-05T06:56:19.930Z,102075.56
2022-10-05T06:59:12.386Z,102085.66
2022-10-05T07:01:51.738Z,102084.56
2022-10-05T07:04:26.168Z,102087.94
2022-10-05T07:06:57.464Z,102087.88
2022-10-05T07:09:32.608Z,102083.88
2022-10-05T07:12:05.140Z,102091.97
2022-10-05T07:14:59.014Z,102096.34
2022-10-05T07:17:32.392Z,102092.13
2022-10-05T07:20:32.775Z,102098.84
2022-10-05T07:23:14.701Z,102096.38
2022-10-05T07:26:16.021Z,102096.88
2022-10-05T07:28:51.093Z,102093.81
2022-10-05T07:31:24.584Z,102096.81
2022-10-05T07:34:12.883Z,102096.38
2022-10-05T07:37:02.942Z,102103.88
2022-10-05T07:40:00.081Z,102102.16
2022-10-05T07:42:50.472Z,102108.88
2022-10-05T07:45:38.149Z,102113.66
2022-10-05T07:48:21.118Z,102112.66
2022-10-05T07:51:19.355Z,102106.88
2022-10-05T07:53:56.832Z,102113.53
2022-10-05T07:56:32.600Z,102105.09
2022-10-05T07:59:07.875Z,102104.28
2022-10-05T08:01:40.076Z,102109.88
2022-10-05T08:04:17.792Z,102110.72
2022-10-05T08:07:12.813Z,102109.50
2022-10-05T08:09:47.369Z,102107.84
2022-10-05T08:12:45.960Z,102104.75
2022-10-05T08:15:21.995Z,102106.31
2022-10-05T08:18:00.125Z,102106.56
2022-10-05T08:20:46.394Z,102109.63
2022-10-05T08:23:16.864Z,102107.25
2022-10-05T08:26:09.766Z,102111.19
2022-10-05T08:28:42.721Z,102108.25
2022-10-05T08:31:16.346Z,102110.47
2022-10-05T08:34:02.637Z,102109.91
2022-10-05T08:36:39.990Z,102116.47
2022-10-05T08:39:18.836Z,102114.75
2022-10-05T08:42:05.756Z,102113.09
2022-10-05T08:45:11.126Z,102121.44
2022-10-05T08:47:50.978Z,102116.63
2022-10-05T08:50:37.455Z,102115.44
2022-10-05T08:53:32.024Z,102126.06
2022-10-05T08:56:19.858Z,102128.75
2022-10-05T08:59:07.000Z,102135.81
2022-10-05T09:01:59.169Z,102138.53
2022-10-05T09:04:30.332Z,102137.00
2022-10-05T09:07:10.921Z,102139.75
2022-10-05T09:10:13.257Z,102140.13
2022-10-05T09:13:02.522Z,102139.72
2022-10-05T09:15:48.320Z,102137.53
2022-10-05T09:21:43.907Z,102143.31
2022-10-05T09:24:15.227Z,102142.25
2022-10-05T09:27:00.714Z,102142.97
2022-10-05T09:29:34.436Z,102147.19
2022-10-05T09:32:11.775Z,102144.66
2022-10-05T09:35:09.713Z,102146.09
2022-10-05T09:37:48.068Z,102143.53
2022-10-05T09:40:53.103Z,102144.25
2022-10-05T09:43:54.456Z,102143.19
2022-10-05T09:46:42.316Z,102149.44
2022-10-05T09:49:29.106Z,102146.94
2022-10-05T09:52:19.192Z,102142.97
2022-10-05T09:54:57.185Z,102136.56
2022-10-05T09:57:59.672Z,102143.75
2022-10-05T10:00:38.573Z,102134.78
2022-10-05T10:03:24.737Z,102139.44
2022-10-05T10:06:19.408Z,102136.91
2022-10-05T10:09:19.107Z,102136.94
2022-10-05T10:12:12.660Z,102128.06
2022-10-05T10:15:12.131Z,102133.72
2022-10-05T10:17:58.852Z,102130.69
2022-10-05T10:20:48.848Z,102125.84
2022-10-05T10:23:43.866Z,102126.88
2022-10-05T10:26:45.763Z,102124.88
2022-10-05T10:29:37.901Z,102129.59
2022-10-05T10:32:28.093Z,102134.63
2022-10-05T10:35:19.537Z,102135.41
2022-10-05T10:37:55.481Z,102133.91
2022-10-05T10:40:42.563Z,102137.63
2022-10-05T10:43:47.543Z,102139.56
2022-10-05T10:46:59.736Z,102133.31
2022-10-05T10:49:46.170Z,102134.03
2022-10-05T10:52:53.869Z,102129.97
2022-10-05T10:55:38.558Z,102134.06
2022-10-05T10:58:21.024Z,102141.09
2022-10-05T11:01:06.700Z,102139.41
2022-10-05T11:03:54.560Z,102126.63
2022-10-05T11:06:34.410Z,102124.66
2022-10-05T11:09:24.046Z,102122.81
2022-10-05T11:12:18.040Z,102116.66
2022-10-05T11:15:20.122Z,102119.88
2022-10-05T11:18:02.979Z,102124.09
2022-10-05T11:20:56.322Z,102119.28
2022-10-05T11:24:01.321Z,102118.94
2022-10-05T11:26:50.630Z,102118.59
2022-10-05T11:29:43.895Z,102125.78
2022-10-05T11:32:39.587Z,102118.56
2022-10-05T11:35:38.488Z,102114.06
2022-10-05T11:38:25.182Z,102107.38
2022-10-05T11:40:52.781Z,102109.28
2022-10-05T11:43:48.500Z,102104.22
2022-10-05T11:46:16.624Z,102099.84
2022-10-05T11:49:03.122Z,102099.50
2022-10-05T11:51:39.854Z,102094.75
2022-10-05T11:54:52.107Z,102089.91
2022-10-05T11:57:34.985Z,102086.66
2022-10-05T12:00:12.957Z,102089.97
2022-10-05T12:03:07.044Z,102100.25
2022-10-05T12:06:17.061Z,102092.03
2022-10-05T12:09:09.611Z,102094.41
2022-10-05T12:11:57.959Z,102090.53
2022-10-05T12:14:48.094Z,102086.03
2022-10-05T12:17:43.859Z,102083.63
2022-10-05T12:20:20.468Z,102090.19
2022-10-05T12:22:58.955Z,102088.03
2022-10-05T12:25:59.625Z,102086.31
2022-10-05T12:28:38.207Z,102085.19
2022-10-05T12:31:34.689Z,102085.03
2022-10-05T12:34:23.430Z,102084.91
2022-10-05T12:37:05.559Z,102082.22
2022-10-05T12:40:08.880Z,102074.81
2022-10-05T12:42:55.204Z,102078.03
2022-10-05T12:45:47.467Z,102074.00
2022-10-05T12:48:47.231Z,102068.34
2022-10-05T12:51:35.939Z,102071.97
2022-10-05T12:54:36.547Z,102065.41
2022-10-05T12:57:43.097Z,102061.34
2022-10-05T13:00:22.468Z,102062.19
2022-10-05T13:03:20.830Z,102060.81
2022-10-05T13:05:52.061Z,102058.03
2022-10-05T13:08:38.822Z,102064.34
2022-10-05T13:11:59.056Z,102063.59
2022-10-05T13:15:06.704Z,102063.31
2022-10-05T13:17:45.880Z,102062.44
2022-10-05T13:20:28.254Z,102062.38
2022-10-05T13:23:22.736Z,102054.81
2022-10-05T13:26:08.938Z,102052.13
2022-10-05T13:28:53.571Z,102055.97
2022-10-05T13:31:27.433Z,102061.09
2022-10-05T13:34:13.867Z,102061.47
2022-10-05T13:37:06.484Z,102057.22
2022-10-05T13:40:32.312Z,102056.69
2022-10-05T13:43:06.291Z,102053.50
2022-10-05T13:45:52.668Z,102049.44
2022-10-05T13:48:57.203Z,102070.25
2022-10-05T13:51:36.020Z,102052.19
2022-10-05T13:54:21.535Z,102057.44
2022-10-05T13:56:54.545Z,102053.16
2022-10-05T13:59:36.096Z,102050.84
2022-10-05T14:02:12.596Z,102054.47
2022-10-05T14:04:51.246Z,102059.69
2022-10-05T14:07:29.805Z,102057.75
2022-10-05T14:09:59.729Z,102058.41
2022-10-05T14:12:28.375Z,102055.06
2022-10-05T14:14:58.448Z,102055.44
2022-10-05T14:17:33.435Z,102041.28
2022-10-05T14:20:03.515Z,102046.53
2022-10-05T14:22:41.590Z,102039.34
2022-10-05T14:25:09.507Z,102046.38
2022-10-05T14:27:58.632Z,102038.41
2022-10-05T14:30:28.998Z,102039.75
2022-10-05T14:33:05.683Z,102040.31
2022-10-05T14:35:51.803Z,102032.75
2022-10-05T14:38:29.474Z,102030.19
2022-10-05T14:41:19.085Z,102021.03
2022-10-05T14:44:09.593Z,102025.41
2022-10-05T14:46:38.673Z,102036.91
2022-10-05T14:49:27.459Z,102029.97
2022-10-05T14:51:56.672Z,102023.56
2022-10-05T14:54:41.257Z,102024.59
2022-10-05T14:57:37.578Z,102025.91
2022-10-05T15:00:13.497Z,102016.06
2022-10-05T15:03:03.608Z,102016.47
2022-10-05T15:05:55.979Z,102012.69
2022-10-05T15:08:45.324Z,102026.22
2022-10-05T15:11:13.080Z,102014.13
2022-10-05T15:13:47.569Z,102012.72
2022-10-05T15:16:15.368Z,102019.31
2022-10-05T15:19:08.304Z,102011.22
2022-10-05T15:21:55.310Z,102012.28
2022-10-05T15:24:27.003Z,102011.22
2022-10-05T15:27:01.202Z,102009.75
2022-10-05T15:29:38.552Z,102012.22
2022-10-05T15:32:28.959Z,102007.91
2022-10-05T15:35:36.854Z,102012.78
2022-10-05T15:38:27.636Z,102012.31
2022-10-05T15:41:14.877Z,102016.25
2022-10-05T15:44:07.739Z,102013.28
2022-10-05T15:46:45.271Z,102012.28
2022-10-05T15:49:37.637Z,102008.75
2022-10-05T15:52:30.489Z,102020.63
2022-10-05T15:55:20.207Z,102019.22
2022-10-05T15:57:57.807Z,102024.22
2022-10-05T16:00:27.414Z,102033.88
2022-10-05T16:03:24.826Z,102025.94
2022-10-05T16:06:20.809Z,102038.38
2022-10-05T16:09:04.491Z,102039.28
2022-10-05T16:11:32.524Z,102036.78
2022-10-05T16:14:10.392Z,102034.69
2022-10-05T16:17:02.728Z,102035.22
2022-10-05T16:19:30.897Z,102036.50
2022-10-05T16:22:25.331Z,102038.69
2022-10-05T16:24:59.742Z,102037.50
2022-10-05T16:27:36.607Z,102041.75
2022-10-05T16:30:16.625Z,102038.84
2022-10-05T16:33:36.285Z,102044.25
2022-10-05T16:36:41.443Z,102050.53
2022-10-05T16:39:25.366Z,102045.09
2022-10-05T16:42:11.967Z,102050.34
2022-10-05T16:45:07.198Z,102051.16
2022-10-05T16:47:53.957Z,102058.75
2022-10-05T16:50:49.680Z,102052.38
2022-10-05T16:53:45.986Z,102060.84
2022-10-05T16:56:17.293Z,102058.94
2022-10-05T16:58:44.758Z,102065.53
2022-10-05T17:01:15.191Z,102068.50
2022-10-05T17:03:49.805Z,102064.50
2022-10-05T17:06:37.395Z,102067.56
2022-10-05T17:09:35.139Z,102071.03
2022-10-05T17:12:26.823Z,102071.56
2022-10-05T17:15:29.304Z,102068.28
2022-10-05T17:18:18.772Z,102073.28
2022-10-05T17:20:54.985Z,102074.97
2022-10-05T17:23:41.843Z,102075.56
2022-10-05T17:26:40.340Z,102074.19
2022-10-05T17:29:28.011Z,102070.22
2022-10-05T17:32:20.645Z,102075.31
2022-10-05T17:35:00.665Z,102087.13
2022-10-05T17:37:29.504Z,102076.28
2022-10-05T17:39:59.037Z,102082.75
2022-10-05T17:42:26.783Z,102081.06
2022-10-05T17:44:58.599Z,102078.41
2022-10-05T17:48:30.871Z,102085.28
2022-10-05T17:51:17.391Z,102080.53
2022-10-05T17:54:04.010Z,102080.09
2022-10-05T17:56:54.366Z,102082.88
2022-10-05T17:59:46.482Z,102088.53
2022-10-05T18:02:37.516Z,102098.34
2022-10-05T18:05:05.501Z,102083.00
2022-10-05T18:07:34.950Z,102084.25
2022-10-05T18:10:12.277Z,102089.72
2022-10-05T18:12:59.372Z,102091.00
2022-10-05T18:15:27.595Z,102097.28
2022-10-05T18:17:59.641Z,102089.41
2022-10-05T18:20:33.034Z,102089.16
2022-10-05T18:23:03.719Z,102086.75
2022-10-05T18:26:02.353Z,102088.66
2022-10-05T18:29:14.024Z,102087.25
2022-10-05T18:31:48.043Z,102092.59
2022-10-05T18:34:31.337Z,102090.00
2022-10-05T18:37:10.582Z,102094.78
2022-10-05T18:40:09.813Z,102098.00
2022-10-05T18:43:11.840Z,102097.44
2022-10-05T18:46:08.127Z,102097.66
2022-10-05T18:48:59.878Z,102098.84
2022-10-05T18:51:39.774Z,102092.34
2022-10-05T18:54:31.342Z,102091.72
2022-10-05T18:57:01.474Z,102086.28
2022-10-05T18:59:58.581Z,102090.00
2022-10-05T19:02:44.281Z,102086.81
2022-10-05T19:05:48.118Z,102098.19
2022-10-05T19:08:44.486Z,102093.47
2022-10-05T19:11:19.141Z,102092.28
2022-10-05T19:13:56.092Z,102090.78
2022-10-05T19:16:26.647Z,102094.69
2022-10-05T19:19:32.470Z,102095.84
2022-10-05T19:22:09.461Z,102096.66
2022-10-05T19:25:09.435Z,102095.56
2022-10-05T19:27:55.553Z,102098.88
2022-10-05T19:30:27.311Z,102091.63
2022-10-05T19:33:16.622Z,102094.69
2022-10-05T19:36:23.970Z,102092.94
2022-10-05T19:39:06.951Z,102096.34
2022-10-05T19:42:07.029Z,102103.97
2022-10-05T19:44:35.437Z,102100.53
2022-10-05T19:47:24.073Z,102105.72
2022-10-05T19:49:51.666Z,102117.34
2022-10-05T19:52:37.784Z,102115.69
2022-10-05T19:55:26.427Z,102116.44
2022-10-05T19:58:01.333Z,102118.25
2022-10-05T20:00:35.380Z,102120.28
2022-10-05T20:03:18.826Z,102123.91
2022-10-05T20:05:46.614Z,102120.91
2022-10-05T20:08:19.497Z,102127.06
2022-10-05T20:11:11.971Z,102120.56
2022-10-05T20:13:43.679Z,102127.19
2022-10-05T20:16:35.739Z,102136.13
2022-10-05T20:19:50.190Z,102126.84
2022-10-05T20:22:46.622Z,102126.56
2022-10-05T20:25:17.631Z,102137.81
2022-10-05T20:27:55.579Z,102127.19
2022-10-05T20:30:28.988Z,102143.50
2022-10-05T20:33:04.716Z,102129.25
2022-10-05T20:35:32.846Z,102138.19
2022-10-05T20:38:00.906Z,102138.78
2022-10-05T20:40:30.742Z,102142.31
2022-10-05T20:42:59.013Z,102137.22
2022-10-05T20:45:27.105Z,102141.34
2022-10-05T20:47:55.722Z,102147.72
2022-10-05T20:50:23.273Z,102138.78
2022-10-05T20:52:53.103Z,102139.03
2022-10-05T20:55:21.281Z,102145.91
2022-10-05T20:57:49.210Z,102139.56
2022-10-05T21:00:16.739Z,102143.84
2022-10-05T21:02:46.756Z,102148.31
2022-10-05T21:05:15.614Z,102154.75
2022-10-05T21:07:43.152Z,102153.66
2022-10-05T21:10:11.755Z,102146.84
2022-10-05T21:12:40.115Z,102141.75
2022-10-05T21:15:08.620Z,102140.53
2022-10-05T21:17:36.400Z,102143.19
2022-10-05T21:20:04.611Z,102143.47
2022-10-05T21:22:35.565Z,102138.50
2022-10-05T21:25:03.108Z,102138.44
2022-10-05T21:27:32.617Z,102143.53
2022-10-05T21:30:00.850Z,102145.59
2022-10-05T21:32:28.795Z,102141.06
2022-10-05T21:34:57.311Z,102144.22
2022-10-05T21:37:25.398Z,102136.38
2022-10-05T21:39:53.745Z,102135.75
2022-10-05T21:42:23.518Z,102136.22
2022-10-05T21:44:51.201Z,102133.47
2022-10-05T21:47:19.617Z,102140.59
2022-10-05T21:49:47.599Z,102134.69
2022-10-05T21:52:15.190Z,102138.78
2022-10-05T21:54:43.255Z,102134.81
2022-10-05T21:57:11.992Z,102126.44
2022-10-05T21:59:43.041Z,102129.72
2022-10-05T22:02:12.018Z,102123.47
2022-10-05T22:04:39.878Z,102124.03
2022-10-05T22:07:19.760Z,102127.75
2022-10-05T22:09:51.649Z,102124.44
2022-10-05T22:12:20.250Z,102126.25
2022-10-05T22:14:48.789Z,102125.41
2022-10-05T22:17:23.726Z,102123.03
2022-10-05T22:19:51.671Z,102127.09
2022-10-05T22:22:19.639Z,102116.88
2022-10-05T22:24:47.716Z,102117.28
2022-10-05T22:27:16.715Z,102114.47
2022-10-05T22:29:44.550Z,102114.63
2022-10-05T22:32:12.122Z,102123.00
2022-10-05T22:34:40.711Z,102120.31
2022-10-05T22:37:13.092Z,102118.09
2022-10-05T22:39:42.748Z,102108.91
2022-10-05T22:42:10.792Z,102105.84
2022-10-05T22:44:39.803Z,102102.66
2022-10-05T22:47:07.599Z,102098.94
2022-10-05T22:49:35.139Z,102094.97
2022-10-05T22:52:03.159Z,102097.28
2022-10-05T22:54:34.269Z,102104.81
2022-10-05T22:57:04.358Z,102092.84
2022-10-05T22:59:32.071Z,102096.06
2022-10-05T23:01:59.779Z,102092.59
2022-10-05T23:04:27.785Z,102099.19
2022-10-05T23:06:56.334Z,102098.44
2022-10-05T23:09:24.334Z,102086.94
2022-10-05T23:11:54.277Z,102099.28
2022-10-05T23:14:22.397Z,102091.13
2022-10-05T23:16:50.215Z,102088.41
2022-10-05T23:19:18.467Z,102096.41
2022-10-05T23:21:46.127Z,102091.44
2022-10-05T23:24:13.748Z,102091.13
2022-10-05T23:26:41.871Z,102092.56
2022-10-05T23:29:10.072Z,102092.66
2022-10-05T23:31:37.697Z,102094.75
2022-10-05T23:34:05.232Z,102095.69
2022-10-05T23:36:33.373Z,102093.41
2022-10-05T23:39:01.384Z,102088.00
2022-10-05T23:41:28.956Z,102091.50
2022-10-05T23:43:57.147Z,102086.94
2022-10-05T23:46:24.805Z,102086.56
2022-10-05T23:48:53.404Z,102091.41
2022-10-05T23:51:21.590Z,102093.41
2022-10-05T23:53:49.234Z,102084.69
2022-10-05T23:56:17.326Z,102083.47
2022-10-05T23:58:45.211Z,102085.94
